sensor_id;sensor_type;location;lat;lon;timestamp;P1;durP1;ratioP1;P2;durP2;ratioP2
66587;SDS011;53446;50.076;8.198;2022-07-12T00:00:39;9.70;;;6.30;;
66587;SDS011;53446;50.076;8.198;2022-07-12T00:02:39;9.20;;;6.00;;
66587;SDS011;53446;50.076;8.198;2022-07-12T00:04:39;9.90;;;6.20;;
66587;SDS011;53446;50.076;8.198;2022-07-12T00:06:40;9.77;;;6.13;;
66587;SDS011;53446;50.076;8.198;2022-07-12T00:08:40;10.10;;;6.37;;
66587;SDS011;53446;50.076;8.198;2022-07-12T00:10:40;11.03;;;6.93;;
66587;SDS011;53446;50.076;8.198;2022-07-12T00:12:41;9.57;;;5.90;;
66587;SDS011;53446;50.076;8.198;2022-07-12T00:14:41;9.93;;;6.10;;
66587;SDS011;53446;50.076;8.198;2022-07-12T00:16:41;10.63;;;6.37;;
66587;SDS011;53446;50.076;8.198;2022-07-12T00:18:42;9.40;;;5.77;;
66587;SDS011;53446;50.076;8.198;2022-07-12T00:20:42;10.33;;;6.70;;
66587;SDS011;53446;50.076;8.198;2022-07-12T00:22:42;9.57;;;5.57;;
66587;SDS011;53446;50.076;8.198;2022-07-12T00:24:43;9.97;;;6.33;;
66587;SDS011;53446;50.076;8.198;2022-07-12T00:26:43;10.23;;;6.70;;
66587;SDS011;53446;50.076;8.198;2022-07-12T00:28:43;10.07;;;6.70;;
66587;SDS011;53446;50.076;8.198;2022-07-12T00:30:44;9.13;;;5.90;;
66587;SDS011;53446;50.076;8.198;2022-07-12T00:32:45;11.27;;;6.37;;
66587;SDS011;53446;50.076;8.198;2022-07-12T00:34:45;9.93;;;5.72;;
66587;SDS011;53446;50.076;8.198;2022-07-12T00:36:45;9.87;;;6.40;;
66587;SDS011;53446;50.076;8.198;2022-07-12T00:38:46;8.87;;;6.00;;
66587;SDS011;53446;50.076;8.198;2022-07-12T00:40:46;9.87;;;5.70;;
66587;SDS011;53446;50.076;8.198;2022-07-12T00:42:47;9.65;;;5.72;;
66587;SDS011;53446;50.076;8.198;2022-07-12T00:44:47;9.33;;;5.67;;
66587;SDS011;53446;50.076;8.198;2022-07-12T00:46:47;9.07;;;5.77;;
66587;SDS011;53446;50.076;8.198;2022-07-12T00:48:48;8.73;;;5.40;;
66587;SDS011;53446;50.076;8.198;2022-07-12T00:50:48;9.27;;;4.83;;
66587;SDS011;53446;50.076;8.198;2022-07-12T00:52:52;8.73;;;4.95;;
66587;SDS011;53446;50.076;8.198;2022-07-12T00:54:53;7.60;;;4.70;;
66587;SDS011;53446;50.076;8.198;2022-07-12T00:56:53;8.73;;;5.40;;
66587;SDS011;53446;50.076;8.198;2022-07-12T00:58:54;8.20;;;5.20;;
66587;SDS011;53446;50.076;8.198;2022-07-12T01:00:55;7.53;;;4.47;;
66587;SDS011;53446;50.076;8.198;2022-07-12T01:02:57;8.80;;;5.07;;
66587;SDS011;53446;50.076;8.198;2022-07-12T01:04:59;8.95;;;5.00;;
66587;SDS011;53446;50.076;8.198;2022-07-12T01:07:00;8.90;;;4.90;;
66587;SDS011;53446;50.076;8.198;2022-07-12T01:09:01;9.83;;;4.30;;
66587;SDS011;53446;50.076;8.198;2022-07-12T01:11:02;7.30;;;4.25;;
66587;SDS011;53446;50.076;8.198;2022-07-12T01:13:02;8.00;;;4.83;;
66587;SDS011;53446;50.076;8.198;2022-07-12T01:15:06;8.13;;;3.95;;
66587;SDS011;53446;50.076;8.198;2022-07-12T01:17:07;7.23;;;4.27;;
66587;SDS011;53446;50.076;8.198;2022-07-12T01:19:08;7.47;;;4.40;;
66587;SDS011;53446;50.076;8.198;2022-07-12T01:21:18;7.93;;;4.20;;
66587;SDS011;53446;50.076;8.198;2022-07-12T01:23:20;8.50;;;4.13;;
66587;SDS011;53446;50.076;8.198;2022-07-12T01:25:21;8.38;;;4.25;;
66587;SDS011;53446;50.076;8.198;2022-07-12T01:27:22;7.03;;;4.03;;
66587;SDS011;53446;50.076;8.198;2022-07-12T01:29:22;6.80;;;3.50;;
66587;SDS011;53446;50.076;8.198;2022-07-12T01:31:22;6.27;;;3.73;;
66587;SDS011;53446;50.076;8.198;2022-07-12T01:33:23;6.63;;;3.27;;
66587;SDS011;53446;50.076;8.198;2022-07-12T01:35:25;7.35;;;3.30;;
66587;SDS011;53446;50.076;8.198;2022-07-12T01:37:27;5.90;;;3.23;;
66587;SDS011;53446;50.076;8.198;2022-07-12T01:39:29;5.60;;;2.90;;
66587;SDS011;53446;50.076;8.198;2022-07-12T01:41:29;7.57;;;3.20;;
66587;SDS011;53446;50.076;8.198;2022-07-12T01:43:30;5.88;;;3.13;;
66587;SDS011;53446;50.076;8.198;2022-07-12T01:45:31;6.13;;;3.03;;
66587;SDS011;53446;50.076;8.198;2022-07-12T01:47:31;9.17;;;3.33;;
66587;SDS011;53446;50.076;8.198;2022-07-12T01:49:32;6.85;;;3.10;;
66587;SDS011;53446;50.076;8.198;2022-07-12T01:51:32;7.07;;;3.23;;
66587;SDS011;53446;50.076;8.198;2022-07-12T01:53:33;6.93;;;3.33;;
66587;SDS011;53446;50.076;8.198;2022-07-12T01:55:35;7.50;;;3.00;;
66587;SDS011;53446;50.076;8.198;2022-07-12T01:57:35;5.63;;;2.90;;
66587;SDS011;53446;50.076;8.198;2022-07-12T01:59:36;5.60;;;3.13;;
66587;SDS011;53446;50.076;8.198;2022-07-12T02:01:36;6.57;;;3.10;;
66587;SDS011;53446;50.076;8.198;2022-07-12T02:03:37;5.78;;;2.97;;
66587;SDS011;53446;50.076;8.198;2022-07-12T02:05:37;5.53;;;2.87;;
66587;SDS011;53446;50.076;8.198;2022-07-12T02:07:38;5.33;;;2.83;;
66587;SDS011;53446;50.076;8.198;2022-07-12T02:09:39;6.32;;;2.50;;
66587;SDS011;53446;50.076;8.198;2022-07-12T02:11:40;5.47;;;2.97;;
66587;SDS011;53446;50.076;8.198;2022-07-12T02:13:40;6.13;;;2.80;;
66587;SDS011;53446;50.076;8.198;2022-07-12T02:15:41;5.20;;;2.60;;
66587;SDS011;53446;50.076;8.198;2022-07-12T02:17:41;6.00;;;2.70;;
66587;SDS011;53446;50.076;8.198;2022-07-12T02:19:42;5.50;;;2.58;;
66587;SDS011;53446;50.076;8.198;2022-07-12T02:21:42;4.72;;;2.33;;
66587;SDS011;53446;50.076;8.198;2022-07-12T02:23:43;5.60;;;2.90;;
66587;SDS011;53446;50.076;8.198;2022-07-12T02:25:43;5.43;;;2.87;;
66587;SDS011;53446;50.076;8.198;2022-07-12T02:27:43;5.63;;;2.70;;
66587;SDS011;53446;50.076;8.198;2022-07-12T02:29:44;6.18;;;2.70;;
66587;SDS011;53446;50.076;8.198;2022-07-12T02:31:45;5.30;;;2.50;;
66587;SDS011;53446;50.076;8.198;2022-07-12T02:33:45;6.10;;;2.92;;
66587;SDS011;53446;50.076;8.198;2022-07-12T02:35:45;5.10;;;2.67;;
66587;SDS011;53446;50.076;8.198;2022-07-12T02:37:46;5.17;;;2.43;;
66587;SDS011;53446;50.076;8.198;2022-07-12T02:39:46;5.30;;;2.50;;
66587;SDS011;53446;50.076;8.198;2022-07-12T02:41:46;6.37;;;2.80;;
66587;SDS011;53446;50.076;8.198;2022-07-12T02:43:46;6.07;;;2.80;;
66587;SDS011;53446;50.076;8.198;2022-07-12T02:45:47;5.90;;;2.60;;
66587;SDS011;53446;50.076;8.198;2022-07-12T02:47:47;5.10;;;2.50;;
66587;SDS011;53446;50.076;8.198;2022-07-12T02:49:47;5.35;;;2.53;;
66587;SDS011;53446;50.076;8.198;2022-07-12T02:51:48;5.20;;;2.30;;
66587;SDS011;53446;50.076;8.198;2022-07-12T02:53:48;6.67;;;2.60;;
66587;SDS011;53446;50.076;8.198;2022-07-12T02:55:48;5.07;;;2.47;;
66587;SDS011;53446;50.076;8.198;2022-07-12T02:57:49;5.57;;;2.47;;
66587;SDS011;53446;50.076;8.198;2022-07-12T02:59:49;5.47;;;2.73;;
66587;SDS011;53446;50.076;8.198;2022-07-12T03:01:49;7.18;;;2.50;;
66587;SDS011;53446;50.076;8.198;2022-07-12T03:03:50;5.13;;;2.57;;
66587;SDS011;53446;50.076;8.198;2022-07-12T03:05:50;8.83;;;2.63;;
66587;SDS011;53446;50.076;8.198;2022-07-12T03:07:50;4.73;;;2.33;;
66587;SDS011;53446;50.076;8.198;2022-07-12T03:09:51;5.53;;;2.57;;
66587;SDS011;53446;50.076;8.198;2022-07-12T03:11:51;6.00;;;2.73;;
66587;SDS011;53446;50.076;8.198;2022-07-12T03:13:51;6.43;;;2.57;;
66587;SDS011;53446;50.076;8.198;2022-07-12T03:15:52;4.80;;;2.60;;
66587;SDS011;53446;50.076;8.198;2022-07-12T03:17:52;5.40;;;2.63;;
66587;SDS011;53446;50.076;8.198;2022-07-12T03:19:52;4.95;;;2.65;;
66587;SDS011;53446;50.076;8.198;2022-07-12T03:21:53;4.97;;;2.40;;
66587;SDS011;53446;50.076;8.198;2022-07-12T03:23:53;5.10;;;2.23;;
66587;SDS011;53446;50.076;8.198;2022-07-12T03:25:53;6.73;;;2.30;;
66587;SDS011;53446;50.076;8.198;2022-07-12T03:27:54;4.68;;;2.03;;
66587;SDS011;53446;50.076;8.198;2022-07-12T03:29:55;6.03;;;2.47;;
66587;SDS011;53446;50.076;8.198;2022-07-12T03:31:55;4.70;;;2.40;;
66587;SDS011;53446;50.076;8.198;2022-07-12T03:33:55;5.07;;;2.40;;
66587;SDS011;53446;50.076;8.198;2022-07-12T03:35:56;5.30;;;2.50;;
66587;SDS011;53446;50.076;8.198;2022-07-12T03:37:56;4.73;;;2.40;;
66587;SDS011;53446;50.076;8.198;2022-07-12T03:39:56;8.63;;;2.77;;
66587;SDS011;53446;50.076;8.198;2022-07-12T03:41:57;5.75;;;2.85;;
66587;SDS011;53446;50.076;8.198;2022-07-12T03:43:57;5.25;;;2.70;;
66587;SDS011;53446;50.076;8.198;2022-07-12T03:45:57;4.80;;;2.20;;
66587;SDS011;53446;50.076;8.198;2022-07-12T03:47:57;6.73;;;2.50;;
66587;SDS011;53446;50.076;8.198;2022-07-12T03:49:58;6.03;;;2.50;;
66587;SDS011;53446;50.076;8.198;2022-07-12T03:51:58;5.40;;;2.70;;
66587;SDS011;53446;50.076;8.198;2022-07-12T03:53:58;5.67;;;2.80;;
66587;SDS011;53446;50.076;8.198;2022-07-12T03:55:59;5.10;;;2.20;;
66587;SDS011;53446;50.076;8.198;2022-07-12T03:57:59;5.27;;;2.20;;
66587;SDS011;53446;50.076;8.198;2022-07-12T03:59:59;6.53;;;2.78;;
66587;SDS011;53446;50.076;8.198;2022-07-12T04:02:00;5.18;;;2.60;;
66587;SDS011;53446;50.076;8.198;2022-07-12T04:04:02;7.75;;;3.30;;
66587;SDS011;53446;50.076;8.198;2022-07-12T04:06:02;5.07;;;2.40;;
66587;SDS011;53446;50.076;8.198;2022-07-12T04:08:03;6.33;;;3.10;;
66587;SDS011;53446;50.076;8.198;2022-07-12T04:10:04;5.82;;;3.17;;
66587;SDS011;53446;50.076;8.198;2022-07-12T04:12:05;5.90;;;3.00;;
66587;SDS011;53446;50.076;8.198;2022-07-12T04:14:05;4.93;;;2.38;;
66587;SDS011;53446;50.076;8.198;2022-07-12T04:16:05;5.63;;;2.90;;
66587;SDS011;53446;50.076;8.198;2022-07-12T04:18:06;5.53;;;2.50;;
66587;SDS011;53446;50.076;8.198;2022-07-12T04:20:07;5.13;;;2.27;;
66587;SDS011;53446;50.076;8.198;2022-07-12T04:22:08;4.40;;;2.25;;
66587;SDS011;53446;50.076;8.198;2022-07-12T04:24:08;5.13;;;2.40;;
66587;SDS011;53446;50.076;8.198;2022-07-12T04:26:08;5.70;;;2.60;;
66587;SDS011;53446;50.076;8.198;2022-07-12T04:28:09;5.00;;;2.47;;
66587;SDS011;53446;50.076;8.198;2022-07-12T04:30:09;5.53;;;2.60;;
66587;SDS011;53446;50.076;8.198;2022-07-12T04:32:10;5.07;;;2.50;;
66587;SDS011;53446;50.076;8.198;2022-07-12T04:34:10;5.03;;;2.40;;
66587;SDS011;53446;50.076;8.198;2022-07-12T04:36:10;6.40;;;2.30;;
66587;SDS011;53446;50.076;8.198;2022-07-12T04:38:11;4.82;;;2.53;;
66587;SDS011;53446;50.076;8.198;2022-07-12T04:40:11;6.63;;;2.90;;
66587;SDS011;53446;50.076;8.198;2022-07-12T04:42:12;5.20;;;2.40;;
66587;SDS011;53446;50.076;8.198;2022-07-12T04:44:12;5.33;;;2.60;;
66587;SDS011;53446;50.076;8.198;2022-07-12T04:46:12;4.90;;;2.27;;
66587;SDS011;53446;50.076;8.198;2022-07-12T04:48:12;4.90;;;2.33;;
66587;SDS011;53446;50.076;8.198;2022-07-12T04:50:13;5.00;;;2.53;;
66587;SDS011;53446;50.076;8.198;2022-07-12T04:52:13;5.47;;;2.50;;
66587;SDS011;53446;50.076;8.198;2022-07-12T04:54:14;5.57;;;2.60;;
66587;SDS011;53446;50.076;8.198;2022-07-12T04:56:14;5.45;;;2.60;;
66587;SDS011;53446;50.076;8.198;2022-07-12T04:58:15;5.50;;;2.70;;
66587;SDS011;53446;50.076;8.198;2022-07-12T05:00:15;5.00;;;2.30;;
66587;SDS011;53446;50.076;8.198;2022-07-12T05:02:15;4.40;;;2.20;;
66587;SDS011;53446;50.076;8.198;2022-07-12T05:04:16;4.87;;;2.33;;
66587;SDS011;53446;50.076;8.198;2022-07-12T05:06:16;5.00;;;2.13;;
66587;SDS011;53446;50.076;8.198;2022-07-12T05:08:16;8.40;;;2.50;;
66587;SDS011;53446;50.076;8.198;2022-07-12T05:10:17;4.80;;;2.30;;
66587;SDS011;53446;50.076;8.198;2022-07-12T05:12:20;5.93;;;2.57;;
66587;SDS011;53446;50.076;8.198;2022-07-12T05:14:20;6.18;;;2.83;;
66587;SDS011;53446;50.076;8.198;2022-07-12T05:16:20;4.57;;;2.27;;
66587;SDS011;53446;50.076;8.198;2022-07-12T05:18:21;5.90;;;2.83;;
66587;SDS011;53446;50.076;8.198;2022-07-12T05:20:21;6.70;;;2.53;;
66587;SDS011;53446;50.076;8.198;2022-07-12T05:22:21;4.77;;;2.33;;
66587;SDS011;53446;50.076;8.198;2022-07-12T05:24:22;5.63;;;2.90;;
66587;SDS011;53446;50.076;8.198;2022-07-12T05:26:22;6.20;;;2.92;;
66587;SDS011;53446;50.076;8.198;2022-07-12T05:28:22;4.97;;;2.78;;
66587;SDS011;53446;50.076;8.198;2022-07-12T05:30:23;5.13;;;2.43;;
66587;SDS011;53446;50.076;8.198;2022-07-12T05:32:23;6.93;;;2.90;;
66587;SDS011;53446;50.076;8.198;2022-07-12T05:34:23;5.93;;;2.67;;
66587;SDS011;53446;50.076;8.198;2022-07-12T05:36:24;5.53;;;2.30;;
66587;SDS011;53446;50.076;8.198;2022-07-12T05:38:24;6.07;;;2.80;;
66587;SDS011;53446;50.076;8.198;2022-07-12T05:40:25;9.40;;;2.83;;
66587;SDS011;53446;50.076;8.198;2022-07-12T05:42:25;7.03;;;2.90;;
66587;SDS011;53446;50.076;8.198;2022-07-12T05:44:26;5.00;;;2.40;;
66587;SDS011;53446;50.076;8.198;2022-07-12T05:46:26;5.57;;;2.20;;
66587;SDS011;53446;50.076;8.198;2022-07-12T05:48:26;7.35;;;2.50;;
66587;SDS011;53446;50.076;8.198;2022-07-12T05:50:26;5.50;;;2.47;;
66587;SDS011;53446;50.076;8.198;2022-07-12T05:52:27;4.13;;;2.03;;
66587;SDS011;53446;50.076;8.198;2022-07-12T05:54:46;7.20;;;2.63;;
66587;SDS011;53446;50.076;8.198;2022-07-12T05:56:46;7.35;;;2.78;;
66587;SDS011;53446;50.076;8.198;2022-07-12T05:58:46;7.00;;;2.60;;
66587;SDS011;53446;50.076;8.198;2022-07-12T06:00:47;7.20;;;2.50;;
66587;SDS011;53446;50.076;8.198;2022-07-12T06:02:47;5.10;;;2.53;;
66587;SDS011;53446;50.076;8.198;2022-07-12T06:04:47;7.33;;;2.60;;
66587;SDS011;53446;50.076;8.198;2022-07-12T06:06:48;7.27;;;2.87;;
66587;SDS011;53446;50.076;8.198;2022-07-12T06:08:48;5.03;;;2.47;;
66587;SDS011;53446;50.076;8.198;2022-07-12T06:10:48;8.30;;;2.60;;
66587;SDS011;53446;50.076;8.198;2022-07-12T06:12:49;6.53;;;2.70;;
66587;SDS011;53446;50.076;8.198;2022-07-12T06:14:49;6.20;;;3.50;;
66587;SDS011;53446;50.076;8.198;2022-07-12T06:16:49;8.07;;;3.40;;
66587;SDS011;53446;50.076;8.198;2022-07-12T06:18:50;6.90;;;2.77;;
66587;SDS011;53446;50.076;8.198;2022-07-12T06:20:50;7.87;;;2.73;;
66587;SDS011;53446;50.076;8.198;2022-07-12T06:22:50;5.10;;;2.70;;
66587;SDS011;53446;50.076;8.198;2022-07-12T06:24:51;6.50;;;2.77;;
66587;SDS011;53446;50.076;8.198;2022-07-12T06:26:51;4.60;;;2.55;;
66587;SDS011;53446;50.076;8.198;2022-07-12T06:28:51;5.40;;;2.42;;
66587;SDS011;53446;50.076;8.198;2022-07-12T06:30:51;5.80;;;2.80;;
66587;SDS011;53446;50.076;8.198;2022-07-12T06:32:52;5.63;;;2.67;;
66587;SDS011;53446;50.076;8.198;2022-07-12T06:34:52;5.80;;;2.77;;
66587;SDS011;53446;50.076;8.198;2022-07-12T06:36:53;6.37;;;2.63;;
66587;SDS011;53446;50.076;8.198;2022-07-12T06:38:53;5.90;;;2.87;;
66587;SDS011;53446;50.076;8.198;2022-07-12T06:40:53;5.70;;;2.73;;
66587;SDS011;53446;50.076;8.198;2022-07-12T06:42:53;8.52;;;2.53;;
66587;SDS011;53446;50.076;8.198;2022-07-12T06:44:54;4.78;;;2.40;;
66587;SDS011;53446;50.076;8.198;2022-07-12T06:46:54;6.13;;;2.73;;
66587;SDS011;53446;50.076;8.198;2022-07-12T06:48:54;6.10;;;2.97;;
66587;SDS011;53446;50.076;8.198;2022-07-12T06:50:55;5.53;;;2.87;;
66587;SDS011;53446;50.076;8.198;2022-07-12T06:52:55;5.57;;;2.83;;
66587;SDS011;53446;50.076;8.198;2022-07-12T06:54:56;6.20;;;3.07;;
66587;SDS011;53446;50.076;8.198;2022-07-12T06:56:56;6.30;;;2.90;;
66587;SDS011;53446;50.076;8.198;2022-07-12T06:58:56;6.20;;;2.80;;
66587;SDS011;53446;50.076;8.198;2022-07-12T07:00:57;6.17;;;2.70;;
66587;SDS011;53446;50.076;8.198;2022-07-12T07:02:57;6.00;;;2.47;;
66587;SDS011;53446;50.076;8.198;2022-07-12T07:04:57;5.27;;;2.60;;
66587;SDS011;53446;50.076;8.198;2022-07-12T07:06:58;5.75;;;2.70;;
66587;SDS011;53446;50.076;8.198;2022-07-12T07:08:58;8.38;;;2.60;;
66587;SDS011;53446;50.076;8.198;2022-07-12T07:10:58;5.00;;;2.70;;
66587;SDS011;53446;50.076;8.198;2022-07-12T07:12:58;5.83;;;2.77;;
66587;SDS011;53446;50.076;8.198;2022-07-12T07:14:59;4.95;;;2.08;;
66587;SDS011;53446;50.076;8.198;2022-07-12T07:17:00;4.90;;;2.70;;
66587;SDS011;53446;50.076;8.198;2022-07-12T07:19:00;7.97;;;2.70;;
66587;SDS011;53446;50.076;8.198;2022-07-12T07:21:01;5.18;;;2.50;;
66587;SDS011;53446;50.076;8.198;2022-07-12T07:23:02;4.53;;;2.37;;
66587;SDS011;53446;50.076;8.198;2022-07-12T07:25:02;6.93;;;2.50;;
66587;SDS011;53446;50.076;8.198;2022-07-12T07:27:03;5.07;;;2.63;;
66587;SDS011;53446;50.076;8.198;2022-07-12T07:29:04;4.83;;;2.23;;
66587;SDS011;53446;50.076;8.198;2022-07-12T07:31:23;5.90;;;2.78;;
66587;SDS011;53446;50.076;8.198;2022-07-12T07:33:24;5.40;;;2.20;;
66587;SDS011;53446;50.076;8.198;2022-07-12T07:35:24;7.10;;;2.65;;
66587;SDS011;53446;50.076;8.198;2022-07-12T07:37:25;5.10;;;2.60;;
66587;SDS011;53446;50.076;8.198;2022-07-12T07:39:25;4.80;;;2.60;;
66587;SDS011;53446;50.076;8.198;2022-07-12T07:41:25;5.18;;;2.50;;
66587;SDS011;53446;50.076;8.198;2022-07-12T07:43:26;5.65;;;2.30;;
66587;SDS011;53446;50.076;8.198;2022-07-12T07:45:26;5.33;;;2.50;;
66587;SDS011;53446;50.076;8.198;2022-07-12T07:47:27;5.57;;;2.20;;
66587;SDS011;53446;50.076;8.198;2022-07-12T07:49:27;4.80;;;2.40;;
66587;SDS011;53446;50.076;8.198;2022-07-12T07:51:27;6.37;;;2.60;;
66587;SDS011;53446;50.076;8.198;2022-07-12T07:53:27;4.90;;;2.50;;
66587;SDS011;53446;50.076;8.198;2022-07-12T07:55:28;5.95;;;2.70;;
66587;SDS011;53446;50.076;8.198;2022-07-12T07:57:29;5.45;;;2.72;;
66587;SDS011;53446;50.076;8.198;2022-07-12T07:59:29;5.60;;;2.60;;
66587;SDS011;53446;50.076;8.198;2022-07-12T08:01:29;5.40;;;2.17;;
66587;SDS011;53446;50.076;8.198;2022-07-12T08:03:48;4.65;;;2.40;;
66587;SDS011;53446;50.076;8.198;2022-07-12T08:05:48;6.23;;;2.73;;
66587;SDS011;53446;50.076;8.198;2022-07-12T08:07:50;5.53;;;2.42;;
66587;SDS011;53446;50.076;8.198;2022-07-12T08:09:51;5.93;;;2.10;;
66587;SDS011;53446;50.076;8.198;2022-07-12T08:11:51;5.53;;;2.60;;
66587;SDS011;53446;50.076;8.198;2022-07-12T08:13:51;5.17;;;2.30;;
66587;SDS011;53446;50.076;8.198;2022-07-12T08:15:52;5.80;;;2.60;;
66587;SDS011;53446;50.076;8.198;2022-07-12T08:17:52;5.05;;;2.47;;
66587;SDS011;53446;50.076;8.198;2022-07-12T08:19:52;5.23;;;2.27;;
66587;SDS011;53446;50.076;8.198;2022-07-12T08:21:53;5.63;;;2.40;;
66587;SDS011;53446;50.076;8.198;2022-07-12T08:23:53;4.90;;;2.17;;
66587;SDS011;53446;50.076;8.198;2022-07-12T08:25:54;5.53;;;2.97;;
66587;SDS011;53446;50.076;8.198;2022-07-12T08:27:54;6.00;;;2.10;;
66587;SDS011;53446;50.076;8.198;2022-07-12T08:29:55;6.70;;;2.37;;
66587;SDS011;53446;50.076;8.198;2022-07-12T08:31:55;4.50;;;2.35;;
66587;SDS011;53446;50.076;8.198;2022-07-12T08:33:56;4.40;;;2.22;;
66587;SDS011;53446;50.076;8.198;2022-07-12T08:35:56;6.00;;;2.80;;
66587;SDS011;53446;50.076;8.198;2022-07-12T08:37:56;5.67;;;2.17;;
66587;SDS011;53446;50.076;8.198;2022-07-12T08:39:57;5.03;;;2.10;;
66587;SDS011;53446;50.076;8.198;2022-07-12T08:41:57;5.73;;;2.20;;
66587;SDS011;53446;50.076;8.198;2022-07-12T08:43:57;5.83;;;2.47;;
66587;SDS011;53446;50.076;8.198;2022-07-12T08:46:01;5.87;;;2.00;;
66587;SDS011;53446;50.076;8.198;2022-07-12T08:48:08;4.93;;;2.00;;
66587;SDS011;53446;50.076;8.198;2022-07-12T08:50:13;5.65;;;2.30;;
66587;SDS011;53446;50.076;8.198;2022-07-12T08:52:24;5.15;;;2.10;;
66587;SDS011;53446;50.076;8.198;2022-07-12T08:54:25;4.95;;;2.15;;
66587;SDS011;53446;50.076;8.198;2022-07-12T08:56:33;7.07;;;2.00;;
66587;SDS011;53446;50.076;8.198;2022-07-12T08:58:34;5.93;;;2.58;;
66587;SDS011;53446;50.076;8.198;2022-07-12T09:00:34;4.77;;;1.93;;
66587;SDS011;53446;50.076;8.198;2022-07-12T09:02:42;4.53;;;1.73;;
66587;SDS011;53446;50.076;8.198;2022-07-12T09:05:05;4.68;;;1.90;;
66587;SDS011;53446;50.076;8.198;2022-07-12T09:07:13;4.80;;;2.00;;
66587;SDS011;53446;50.076;8.198;2022-07-12T09:11:46;4.20;;;1.80;;
66587;SDS011;53446;50.076;8.198;2022-07-12T09:13:54;4.35;;;1.75;;
66587;SDS011;53446;50.076;8.198;2022-07-12T09:16:11;4.00;;;1.80;;
66587;SDS011;53446;50.076;8.198;2022-07-12T09:18:12;5.72;;;1.70;;
66587;SDS011;53446;50.076;8.198;2022-07-12T09:20:15;4.55;;;2.00;;
66587;SDS011;53446;50.076;8.198;2022-07-12T09:22:15;5.83;;;1.70;;
66587;SDS011;53446;50.076;8.198;2022-07-12T09:24:17;4.65;;;1.83;;
66587;SDS011;53446;50.076;8.198;2022-07-12T09:26:18;3.90;;;1.70;;
66587;SDS011;53446;50.076;8.198;2022-07-12T09:28:19;4.20;;;1.60;;
66587;SDS011;53446;50.076;8.198;2022-07-12T09:30:20;4.13;;;1.20;;
66587;SDS011;53446;50.076;8.198;2022-07-12T09:32:23;6.03;;;1.45;;
66587;SDS011;53446;50.076;8.198;2022-07-12T09:34:42;3.85;;;1.20;;
66587;SDS011;53446;50.076;8.198;2022-07-12T09:37:01;3.92;;;1.20;;
66587;SDS011;53446;50.076;8.198;2022-07-12T09:39:01;3.78;;;1.40;;
66587;SDS011;53446;50.076;8.198;2022-07-12T09:41:02;3.60;;;1.23;;
66587;SDS011;53446;50.076;8.198;2022-07-12T09:43:06;3.50;;;1.40;;
66587;SDS011;53446;50.076;8.198;2022-07-12T09:45:07;5.23;;;1.60;;
66587;SDS011;53446;50.076;8.198;2022-07-12T09:47:09;7.05;;;3.42;;
66587;SDS011;53446;50.076;8.198;2022-07-12T09:49:13;5.13;;;1.75;;
66587;SDS011;53446;50.076;8.198;2022-07-12T09:51:13;4.95;;;2.55;;
66587;SDS011;53446;50.076;8.198;2022-07-12T09:53:22;4.15;;;1.52;;
66587;SDS011;53446;50.076;8.198;2022-07-12T09:55:29;3.83;;;1.45;;
66587;SDS011;53446;50.076;8.198;2022-07-12T09:57:30;4.65;;;1.30;;
66587;SDS011;53446;50.076;8.198;2022-07-12T09:59:31;3.65;;;1.30;;
66587;SDS011;53446;50.076;8.198;2022-07-12T10:01:32;4.40;;;1.40;;
66587;SDS011;53446;50.076;8.198;2022-07-12T10:03:33;4.20;;;1.17;;
66587;SDS011;53446;50.076;8.198;2022-07-12T10:05:35;5.38;;;1.20;;
66587;SDS011;53446;50.076;8.198;2022-07-12T10:07:40;3.53;;;1.20;;
66587;SDS011;53446;50.076;8.198;2022-07-12T10:09:41;3.97;;;1.23;;
66587;SDS011;53446;50.076;8.198;2022-07-12T10:11:42;4.95;;;2.40;;
66587;SDS011;53446;50.076;8.198;2022-07-12T10:13:43;4.55;;;1.42;;
66587;SDS011;53446;50.076;8.198;2022-07-12T10:15:44;3.85;;;1.33;;
66587;SDS011;53446;50.076;8.198;2022-07-12T10:17:54;4.05;;;1.50;;
66587;SDS011;53446;50.076;8.198;2022-07-12T10:20:15;6.63;;;2.75;;
66587;SDS011;53446;50.076;8.198;2022-07-12T10:22:20;6.73;;;3.53;;
66587;SDS011;53446;50.076;8.198;2022-07-12T10:26:36;3.80;;;1.70;;
66587;SDS011;53446;50.076;8.198;2022-07-12T10:30:57;3.40;;;1.35;;
66587;SDS011;53446;50.076;8.198;2022-07-12T10:33:04;3.97;;;1.30;;
66587;SDS011;53446;50.076;8.198;2022-07-12T10:35:18;4.38;;;1.40;;
66587;SDS011;53446;50.076;8.198;2022-07-12T10:37:20;6.45;;;1.50;;
66587;SDS011;53446;50.076;8.198;2022-07-12T10:39:21;3.50;;;1.20;;
66587;SDS011;53446;50.076;8.198;2022-07-12T10:41:21;4.05;;;1.40;;
66587;SDS011;53446;50.076;8.198;2022-07-12T10:43:26;3.60;;;1.30;;
66587;SDS011;53446;50.076;8.198;2022-07-12T10:45:46;3.83;;;1.70;;
66587;SDS011;53446;50.076;8.198;2022-07-12T10:47:53;4.93;;;1.70;;
66587;SDS011;53446;50.076;8.198;2022-07-12T10:49:54;4.45;;;1.58;;
66587;SDS011;53446;50.076;8.198;2022-07-12T10:54:19;5.72;;;1.27;;
66587;SDS011;53446;50.076;8.198;2022-07-12T10:58:29;3.50;;;1.35;;
66587;SDS011;53446;50.076;8.198;2022-07-12T11:00:30;3.83;;;1.53;;
66587;SDS011;53446;50.076;8.198;2022-07-12T11:02:31;3.97;;;1.45;;
66587;SDS011;53446;50.076;8.198;2022-07-12T11:04:31;6.60;;;1.40;;
66587;SDS011;53446;50.076;8.198;2022-07-12T11:06:37;4.10;;;1.58;;
66587;SDS011;53446;50.076;8.198;2022-07-12T11:09:00;4.15;;;1.52;;
66587;SDS011;53446;50.076;8.198;2022-07-12T11:11:02;3.65;;;1.40;;
66587;SDS011;53446;50.076;8.198;2022-07-12T11:13:19;4.85;;;2.00;;
66587;SDS011;53446;50.076;8.198;2022-07-12T11:15:19;3.92;;;1.73;;
66587;SDS011;53446;50.076;8.198;2022-07-12T11:17:20;4.30;;;1.70;;
66587;SDS011;53446;50.076;8.198;2022-07-12T11:19:26;6.50;;;3.83;;
66587;SDS011;53446;50.076;8.198;2022-07-12T11:21:27;3.72;;;1.70;;
66587;SDS011;53446;50.076;8.198;2022-07-12T11:23:28;4.00;;;1.57;;
66587;SDS011;53446;50.076;8.198;2022-07-12T11:25:29;3.70;;;1.50;;
66587;SDS011;53446;50.076;8.198;2022-07-12T11:27:30;3.60;;;1.50;;
66587;SDS011;53446;50.076;8.198;2022-07-12T11:29:31;3.92;;;1.30;;
66587;SDS011;53446;50.076;8.198;2022-07-12T11:31:31;3.60;;;1.60;;
66587;SDS011;53446;50.076;8.198;2022-07-12T11:33:50;3.63;;;1.50;;
66587;SDS011;53446;50.076;8.198;2022-07-12T11:35:53;4.43;;;1.40;;
66587;SDS011;53446;50.076;8.198;2022-07-12T11:37:55;3.50;;;1.40;;
66587;SDS011;53446;50.076;8.198;2022-07-12T11:39:56;3.70;;;1.70;;
66587;SDS011;53446;50.076;8.198;2022-07-12T11:41:57;5.00;;;1.65;;
66587;SDS011;53446;50.076;8.198;2022-07-12T11:43:58;5.25;;;1.60;;
66587;SDS011;53446;50.076;8.198;2022-07-12T11:45:59;5.57;;;2.10;;
66587;SDS011;53446;50.076;8.198;2022-07-12T11:48:01;3.45;;;1.65;;
66587;SDS011;53446;50.076;8.198;2022-07-12T11:50:03;3.65;;;1.77;;
66587;SDS011;53446;50.076;8.198;2022-07-12T11:52:06;3.77;;;1.80;;
66587;SDS011;53446;50.076;8.198;2022-07-12T11:54:06;3.40;;;1.70;;
66587;SDS011;53446;50.076;8.198;2022-07-12T11:56:07;4.53;;;1.60;;
66587;SDS011;53446;50.076;8.198;2022-07-12T11:58:08;4.15;;;1.50;;
66587;SDS011;53446;50.076;8.198;2022-07-12T12:00:15;4.17;;;1.83;;
66587;SDS011;53446;50.076;8.198;2022-07-12T12:02:17;4.30;;;1.65;;
66587;SDS011;53446;50.076;8.198;2022-07-12T12:04:18;3.80;;;1.57;;
66587;SDS011;53446;50.076;8.198;2022-07-12T12:06:19;5.03;;;2.17;;
66587;SDS011;53446;50.076;8.198;2022-07-12T12:08:19;3.80;;;1.90;;
66587;SDS011;53446;50.076;8.198;2022-07-12T12:10:20;5.72;;;1.80;;
66587;SDS011;53446;50.076;8.198;2022-07-12T12:12:20;3.87;;;2.00;;
66587;SDS011;53446;50.076;8.198;2022-07-12T12:14:20;6.30;;;3.07;;
66587;SDS011;53446;50.076;8.198;2022-07-12T12:16:21;4.30;;;2.30;;
66587;SDS011;53446;50.076;8.198;2022-07-12T12:18:28;5.10;;;2.10;;
66587;SDS011;53446;50.076;8.198;2022-07-12T12:20:29;3.72;;;1.80;;
66587;SDS011;53446;50.076;8.198;2022-07-12T12:22:33;4.65;;;1.90;;
66587;SDS011;53446;50.076;8.198;2022-07-12T12:24:36;5.68;;;2.22;;